Météo Nord-Pas-de-Calais   La météo au plus près de chez vous

Station météorologique

Observations météo à Trappes (78621)

78621001 167 m Dernier relevé à 07:48
18.9°C
Humidité 92 % Vent 8.6 km/h 1018.7 hPa

Journée consultée

Vendredi 4 Septembre 2026

Synthèse de la journée

Périodes de référence en UTC

Température maximale

26.7°C

à 16:48

06h 06h

Température minimale

17.7°C

à 07:00

18h 18h

Rafale maximale

24 km/h

à 07:06

00h 00h

Précipitations

0 mm

Cumul quotidien

06h 06h

Ensoleillement

0h 25 mins

Durée quotidienne

00h 00h

Graphiques de la journée

Heure locale Réduire

Données détaillées

Relevés météo

Pas de 6 minutes Afficher les relevés infra-horaires
Relevés météo détaillés à Trappes pour le Vendredi 4 Septembre 2026
Heure Température °C Point de rosée °C Humidité % Vent moyen (raf.), km/h Précipitations mm Température à 10 cm °C Température à 20 cm °C Température à 50 cm °C Température à 100 cm °C Visibilité m Hauteur neige cm Ensoleillement min Rayonnement global W/m² Pression hPa
07:48 18.9 °C 17 °C 89 % 10 km/h (17 km/h) 0 mm0 mm 19.3 °C 19.8 °C 19.4 °C 18.6 °C 20000 m 0 cm 6 min 16.3 W/m² 1018.3 hPa
07:42 18.7 °C 16.8 °C 89 % 10 km/h (17 km/h) 0 mm0 mm 19.3 °C 19.8 °C 19.4 °C 18.6 °C 20000 m 0 cm 6 min 12.1 W/m² 1018.3 hPa
07:36 18.7 °C 16.8 °C 89 % 10 km/h (15 km/h) 0 mm0 mm 19.4 °C 19.9 °C 19.4 °C 18.7 °C 20000 m 0 cm 6 min 8.5 W/m² 1018.4 hPa
07:30 18.8 °C 16.8 °C 88 % 9 km/h (14 km/h) 0 mm0 mm 19.4 °C 19.9 °C 19.4 °C 18.6 °C 20000 m 0 cm 6 min 0 W/m² 1018.4 hPa
07:24 18.8 °C 16.8 °C 88 % 10 km/h (18 km/h) 0 mm0 mm 19.4 °C 19.9 °C 19.4 °C 18.6 °C 20000 m 0 cm 1 min 0 W/m² 1018.4 hPa
07:18 18.9 °C 16.9 °C 88 % 11 km/h (20 km/h) 0 mm0 mm 19.5 °C 19.9 °C 19.4 °C 18.6 °C 20000 m 0 cm 0 min 0 W/m² 1018.5 hPa
07:12 18.8 °C 16.9 °C 89 % 12 km/h (24 km/h) 0 mm0 mm 19.5 °C 19.9 °C 19.4 °C 18.6 °C 20000 m 0 cm 0 min 0 W/m² 1018.5 hPa
07:06 18.7 °C 17 °C 90 % 12 km/h (24 km/h) 0 mm0 mm 19.5 °C 19.9 °C 19.4 °C 18.6 °C 20000 m 0 cm 0 min 0 W/m² 1018.5 hPa
07:00 18.4 °C 16.9 °C 91 % 10 km/h (18 km/h) 0 mm0 mm 19.5 °C 19.9 °C 19.4 °C 18.6 °C 20000 m 0 cm 0 min 0 W/m² 1018.7 hPa
06:54 18.1 °C 16.6 °C 91 % 9 km/h (15 km/h) 0 mm0 mm 19.5 °C 20 °C 19.4 °C 18.6 °C 20000 m 0 cm 0 min 0 W/m² 1018.7 hPa
06:48 18.1 °C 16.8 °C 92 % 9 km/h (15 km/h) 0 mm0 mm 19.5 °C 20 °C 19.4 °C 18.6 °C 20000 m 0 cm 0 min 0 W/m² 1018.7 hPa
06:42 18 °C 16.7 °C 92 % 8 km/h (12 km/h) 0 mm0 mm 19.5 °C 20 °C 19.4 °C 18.6 °C 20000 m 0 cm 0 min 0 W/m² 1018.6 hPa
06:36 17.9 °C 16.6 °C 92 % 7 km/h (10 km/h) 0 mm0 mm 19.6 °C 20 °C 19.4 °C 18.6 °C 20000 m 0 cm 0 min 0 W/m² 1018.6 hPa
06:30 17.9 °C 16.4 °C 91 % 6 km/h (9 km/h) 0 mm0 mm 19.6 °C 20 °C 19.4 °C 18.6 °C 20000 m 0 cm 0 min 0 W/m² 1018.6 hPa
06:24 17.9 °C 16.6 °C 92 % 6 km/h (9 km/h) 0 mm0 mm 19.6 °C 20 °C 19.4 °C 18.6 °C 20000 m 0 cm 0 min 0 W/m² 1018.5 hPa
06:18 17.9 °C 16.6 °C 92 % 6 km/h (10 km/h) 0 mm0 mm 19.6 °C 20 °C 19.4 °C 18.6 °C 20000 m 0 cm 0 min 0 W/m² 1018.5 hPa
06:12 17.8 °C 16.3 °C 91 % 7 km/h (10 km/h) 0 mm0 mm 19.6 °C 20 °C 19.4 °C 18.6 °C 20000 m 0 cm 0 min 0 W/m² 1018.6 hPa
06:06 17.8 °C 16.3 °C 91 % 6 km/h (10 km/h) 0 mm0 mm 19.7 °C 20 °C 19.4 °C 18.6 °C 20000 m 0 cm 0 min 0 W/m² 1018.7 hPa
06:00 17.8 °C 16.3 °C 91 % 6 km/h (9 km/h) 0 mm0 mm 19.7 °C 20.1 °C 19.4 °C 18.6 °C 20000 m 0 cm 0 min 0 W/m² 1018.6 hPa
05:54 17.8 °C 16.3 °C 91 % 6 km/h (9 km/h) 0 mm0 mm 19.7 °C 20.1 °C 19.4 °C 18.7 °C 20000 m 0 cm 0 min 0 W/m² 1018.6 hPa
05:48 17.9 °C 16.2 °C 90 % 5 km/h (8 km/h) 0 mm0 mm 19.7 °C 20.1 °C 19.4 °C 18.6 °C 20000 m 0 cm 0 min 0 W/m² 1018.6 hPa
05:42 17.9 °C 16.2 °C 90 % 6 km/h (9 km/h) 0 mm0 mm 19.7 °C 20.1 °C 19.4 °C 18.6 °C 20000 m 0 cm 0 min 0 W/m² 1018.8 hPa
05:36 18 °C 16.3 °C 90 % 6 km/h (9 km/h) 0 mm0 mm 19.7 °C 20.1 °C 19.4 °C 18.6 °C 20000 m 0 cm 0 min 0 W/m² 1018.8 hPa
05:30 18 °C 16.3 °C 90 % 5 km/h (8 km/h) 0 mm0 mm 19.8 °C 20.1 °C 19.4 °C 18.6 °C 20000 m 0 cm 0 min 0 W/m² 1018.9 hPa
05:24 18.1 °C 16.3 °C 89 % 4 km/h (7 km/h) 0 mm0 mm 19.8 °C 20.1 °C 19.4 °C 18.6 °C 20000 m 0 cm 0 min 0 W/m² 1018.9 hPa
05:18 18.2 °C 16.4 °C 89 % 4 km/h (7 km/h) 0 mm0 mm 19.8 °C 20.1 °C 19.4 °C 18.6 °C 20000 m 0 cm 0 min 0 W/m² 1018.8 hPa
05:12 18.3 °C 16.5 °C 89 % 4 km/h (6 km/h) 0 mm0 mm 19.8 °C 20.1 °C 19.3 °C 18.6 °C 20000 m 0 cm 0 min 0 W/m² 1018.8 hPa
05:06 18.3 °C 16.3 °C 88 % 5 km/h (7 km/h) 0 mm0 mm 19.8 °C 20.2 °C 19.4 °C 18.6 °C 20000 m 0 cm 0 min 0 W/m² 1018.8 hPa
05:00 18.4 °C 16.4 °C 88 % 5 km/h (8 km/h) 0 mm0 mm 19.9 °C 20.2 °C 19.4 °C 18.6 °C 20000 m 0 cm 0 min 0 W/m² 1018.9 hPa
04:54 18.4 °C 16.4 °C 88 % 4 km/h (8 km/h) 0 mm0 mm 19.9 °C 20.2 °C 19.4 °C 18.7 °C 20000 m 0 cm 0 min 0 W/m² 1018.9 hPa
04:48 18.5 °C 16.5 °C 88 % 4 km/h (6 km/h) 0 mm0 mm 19.9 °C 20.2 °C 19.3 °C 18.6 °C 20000 m 0 cm 0 min 0 W/m² 1018.9 hPa
04:42 18.6 °C 16.6 °C 88 % 5 km/h (8 km/h) 0 mm0 mm 19.9 °C 20.2 °C 19.4 °C 18.6 °C 20000 m 0 cm 0 min 0 W/m² 1018.9 hPa
04:36 18.6 °C 16.4 °C 87 % 6 km/h (9 km/h) 0 mm0 mm 19.9 °C 20.2 °C 19.3 °C 18.6 °C 20000 m 0 cm 0 min 0 W/m² 1018.9 hPa
04:30 18.6 °C 16.4 °C 87 % 6 km/h (9 km/h) 0 mm0 mm 20 °C 20.2 °C 19.4 °C 18.6 °C 20000 m 0 cm 0 min 0 W/m² 1018.9 hPa
04:24 18.6 °C 16.4 °C 87 % 5 km/h (8 km/h) 0 mm0 mm 19.9 °C 20.2 °C 19.3 °C 18.6 °C 20000 m 0 cm 0 min 0 W/m² 1019 hPa
04:18 18.7 °C 16.5 °C 87 % 5 km/h (7 km/h) 0 mm0 mm 20 °C 20.3 °C 19.4 °C 18.7 °C 20000 m 0 cm 0 min 0 W/m² 1018.9 hPa
04:12 18.7 °C 16.5 °C 87 % 5 km/h (9 km/h) 0 mm0 mm 20 °C 20.3 °C 19.4 °C 18.6 °C 20000 m 0 cm 0 min 0 W/m² 1019 hPa
04:06 18.7 °C 16.5 °C 87 % 6 km/h (10 km/h) 0 mm0 mm 20 °C 20.3 °C 19.4 °C 18.7 °C 20000 m 0 cm 0 min 0 W/m² 1019.2 hPa
04:00 18.8 °C 16.4 °C 86 % 5 km/h (10 km/h) 0 mm0 mm 20 °C 20.3 °C 19.4 °C 18.7 °C 20000 m 0 cm 0 min 0 W/m² 1019.1 hPa
03:54 18.8 °C 16.4 °C 86 % 5 km/h (8 km/h) 0 mm0 mm 20 °C 20.3 °C 19.4 °C 18.6 °C 20000 m 0 cm 0 min 0 W/m² 1019.2 hPa
03:48 18.9 °C 16.5 °C 86 % 6 km/h (9 km/h) 0 mm0 mm 20.1 °C 20.3 °C 19.3 °C 18.6 °C 20000 m 0 cm 0 min 0 W/m² 1019.3 hPa
03:42 18.9 °C 16.3 °C 85 % 5 km/h (9 km/h) 0 mm0 mm 20.1 °C 20.4 °C 19.3 °C 18.6 °C 20000 m 0 cm 0 min 0 W/m² 1019.4 hPa
03:36 19 °C 16.4 °C 85 % 5 km/h (8 km/h) 0 mm0 mm 20.1 °C 20.4 °C 19.4 °C 18.7 °C 20000 m 0 cm 0 min 0 W/m² 1019.4 hPa
03:30 19.1 °C 16.5 °C 85 % 6 km/h (9 km/h) 0 mm0 mm 20.1 °C 20.4 °C 19.3 °C 18.7 °C 20000 m 0 cm 0 min 0 W/m² 1019.4 hPa
03:24 19.1 °C 16.5 °C 85 % 6 km/h (9 km/h) 0 mm0 mm 20.1 °C 20.4 °C 19.3 °C 18.7 °C 20000 m 0 cm 0 min 0 W/m² 1019.5 hPa
03:18 19.2 °C 16.4 °C 84 % 6 km/h (9 km/h) 0 mm0 mm 20.2 °C 20.4 °C 19.3 °C 18.7 °C 20000 m 0 cm 0 min 0 W/m² 1019.6 hPa
03:12 19.3 °C 16.5 °C 84 % 6 km/h (9 km/h) 0 mm0 mm 20.2 °C 20.4 °C 19.4 °C 18.7 °C 20000 m 0 cm 0 min 0 W/m² 1019.7 hPa
03:06 19.3 °C 16.5 °C 84 % 5 km/h (9 km/h) 0 mm0 mm 20.2 °C 20.4 °C 19.3 °C 18.7 °C 20000 m 0 cm 0 min 0 W/m² 1019.8 hPa
03:00 19.3 °C 16.5 °C 84 % 5 km/h (8 km/h) 0 mm0 mm 20.2 °C 20.4 °C 19.3 °C 18.6 °C 20000 m 0 cm 0 min 0 W/m² 1019.9 hPa
02:54 19.3 °C 16.5 °C 84 % 5 km/h (8 km/h) 0 mm0 mm 20.2 °C 20.5 °C 19.3 °C 18.6 °C 20000 m 0 cm 0 min 0 W/m² 1020 hPa
02:48 19.4 °C 16.6 °C 84 % 5 km/h (9 km/h) 0 mm0 mm 20.3 °C 20.5 °C 19.3 °C 18.6 °C 20000 m 0 cm 0 min 0 W/m² 1020 hPa
02:42 19.4 °C 16.6 °C 84 % 6 km/h (9 km/h) 0 mm0 mm 20.3 °C 20.5 °C 19.3 °C 18.7 °C 20000 m 0 cm 0 min 0 W/m² 1020 hPa
02:36 19.5 °C 16.5 °C 83 % 5 km/h (8 km/h) 0 mm0 mm 20.3 °C 20.5 °C 19.3 °C 18.6 °C 20000 m 0 cm 0 min 0 W/m² 1020.1 hPa
02:30 19.6 °C 16.6 °C 83 % 5 km/h (8 km/h) 0 mm0 mm 20.3 °C 20.5 °C 19.3 °C 18.6 °C 20000 m 0 cm 0 min 0 W/m² 1020.2 hPa
02:24 19.7 °C 16.5 °C 82 % 6 km/h (10 km/h) 0 mm0 mm 20.4 °C 20.5 °C 19.3 °C 18.6 °C 20000 m 0 cm 0 min 0 W/m² 1020.2 hPa
02:18 19.8 °C 16.6 °C 82 % 6 km/h (10 km/h) 0 mm0 mm 20.4 °C 20.5 °C 19.3 °C 18.6 °C 20000 m 0 cm 0 min 0 W/m² 1020.3 hPa
02:12 19.8 °C 16.6 °C 82 % 6 km/h (9 km/h) 0 mm0 mm 20.4 °C 20.6 °C 19.3 °C 18.7 °C 20000 m 0 cm 0 min 0 W/m² 1020.3 hPa
02:06 19.8 °C 16.4 °C 81 % 5 km/h (9 km/h) 0 mm0 mm 20.4 °C 20.6 °C 19.3 °C 18.6 °C 20000 m 0 cm 0 min 0 W/m² 1020.4 hPa
02:00 19.9 °C 16.5 °C 81 % 4 km/h (8 km/h) 0 mm0 mm 20.4 °C 20.6 °C 19.3 °C 18.6 °C 20000 m 0 cm 0 min 0 W/m² 1020.3 hPa
01:54 19.9 °C 16.5 °C 81 % 5 km/h (10 km/h) 0 mm0 mm 20.5 °C 20.6 °C 19.3 °C 18.6 °C 20000 m 0 cm 0 min 0 W/m² 1020.3 hPa
01:48 20 °C 16.6 °C 81 % 4 km/h (10 km/h) 0 mm0 mm 20.5 °C 20.6 °C 19.3 °C 18.7 °C 20000 m 0 cm 0 min 0 W/m² 1020.4 hPa
01:42 20 °C 16.4 °C 80 % 3 km/h (7 km/h) 0 mm0 mm 20.5 °C 20.6 °C 19.3 °C 18.7 °C 20000 m 0 cm 0 min 0 W/m² 1020.4 hPa
01:36 20.1 °C 16.5 °C 80 % 4 km/h (7 km/h) 0 mm0 mm 20.6 °C 20.6 °C 19.3 °C 18.6 °C 20000 m 0 cm 0 min 0 W/m² 1020.4 hPa
01:30 20.2 °C 16.6 °C 80 % 4 km/h (8 km/h) 0 mm0 mm 20.6 °C 20.6 °C 19.3 °C 18.7 °C 20000 m 0 cm 0 min 0 W/m² 1020.4 hPa
01:24 20.3 °C 16.7 °C 80 % 5 km/h (8 km/h) 0 mm0 mm 20.6 °C 20.7 °C 19.3 °C 18.7 °C 20000 m 0 cm 0 min 0 W/m² 1020.4 hPa
01:18 20.3 °C 16.7 °C 80 % 4 km/h (8 km/h) 0 mm0 mm 20.6 °C 20.7 °C 19.3 °C 18.6 °C 20000 m 0 cm 0 min 0 W/m² 1020.4 hPa
01:12 20.4 °C 16.6 °C 79 % 5 km/h (8 km/h) 0 mm0 mm 20.6 °C 20.7 °C 19.3 °C 18.7 °C 20000 m 0 cm 0 min 0 W/m² 1020.5 hPa
01:06 20.5 °C 16.7 °C 79 % 5 km/h (9 km/h) 0 mm0 mm 20.6 °C 20.7 °C 19.3 °C 18.6 °C 20000 m 0 cm 0 min 0 W/m² 1020.6 hPa
01:00 20.6 °C 16.6 °C 78 % 5 km/h (9 km/h) 0 mm0 mm 20.7 °C 20.7 °C 19.3 °C 18.7 °C 20000 m 0 cm 0 min 0 W/m² 1020.5 hPa
00:54 20.7 °C 16.7 °C 78 % 4 km/h (10 km/h) 0 mm0 mm 20.7 °C 20.7 °C 19.3 °C 18.6 °C 20000 m 0 cm 0 min 0 W/m² 1020.5 hPa
00:48 20.8 °C 16.6 °C 77 % 5 km/h (10 km/h) 0 mm0 mm 20.7 °C 20.7 °C 19.3 °C 18.6 °C 20000 m 0 cm 0 min 0 W/m² 1020.6 hPa
00:42 20.9 °C 16.7 °C 77 % 5 km/h (9 km/h) 0 mm0 mm 20.8 °C 20.7 °C 19.3 °C 18.6 °C 20000 m 0 cm 0 min 0 W/m² 1020.6 hPa
00:36 21 °C 16.8 °C 77 % 5 km/h (9 km/h) 0 mm0 mm 20.8 °C 20.8 °C 19.3 °C 18.7 °C 20000 m 0 cm 0 min 0 W/m² 1020.6 hPa
00:30 21 °C 16.6 °C 76 % 5 km/h (9 km/h) 0 mm0 mm 20.8 °C 20.8 °C 19.3 °C 18.7 °C 20000 m 0 cm 0 min 0 W/m² 1020.7 hPa
00:24 21.2 °C 16.8 °C 76 % 6 km/h (12 km/h) 0 mm0 mm 20.8 °C 20.8 °C 19.3 °C 18.7 °C 20000 m 0 cm 0 min 0 W/m² 1020.7 hPa
00:18 21.1 °C 16.9 °C 77 % 6 km/h (12 km/h) 0 mm0 mm 20.9 °C 20.8 °C 19.3 °C 18.7 °C 20000 m 0 cm 0 min 0 W/m² 1020.7 hPa
00:12 20.8 °C 16.8 °C 78 % 5 km/h (9 km/h) 0 mm0 mm 20.9 °C 20.8 °C 19.3 °C 18.6 °C 20000 m 0 cm 0 min 0 W/m² 1020.7 hPa
00:06 20.8 °C 17 °C 79 % 5 km/h (9 km/h) 0 mm0 mm 20.9 °C 20.8 °C 19.3 °C 18.7 °C 20000 m 0 cm 0 min 0 W/m² 1020.7 hPa
00:00 20.6 °C 17 °C 80 % 4 km/h (8 km/h) 0 mm0 mm 21 °C 20.8 °C 19.2 °C 18.6 °C 20000 m 0 cm 0 min 0 W/m² 1020.9 hPa

Données via Météo-France

Relevés météo à Trappes

Cette page rassemble les observations de la station de Trappes : température, humidité, vent, précipitations et pression atmosphérique. Les graphiques facilitent le suivi de la journée, tandis que le tableau donne accès aux mesures horaires et infra-horaires disponibles.

Pour replacer ces mesures dans leur contexte, consultez la climatologie de Trappes ainsi que ses normales et records. Retrouvez aussi la carte des observations météo en temps réel.